Airfield :
LOGIN :

Register | Disclaimer

   EN    FR    IT 

 










Legend :    VFR   Marginal VFR   IFR   Intensive IFR   Very Intensive IFR
Visi :
Ceiling :
>= 8 km
>= 3000ft
5 to 8 km
1000 to 3000 ft
1500m to 5 km
500 to 1000 ft
800 to 1500m
200 to 500 ft
< 800m
< 200 ft
Symbols :   Thunderstorms  Fog  Heavy snow  Heavy precipitations  Wind > 20 kt
SIGMETs :     Misc.  Thunderstorms  Icing  Turbulence  Mountain Waves  Volcanic Ashes






- Airport Elevation : 3 ft
- IATA code : LWR


EHLW - Leuuwarden Air Base

CURRENT METAR :
  • 091455Z AUTO 34020KT 9999 BKN091 BKN097 OVC110 07/03 Q1003 BLU 35020G30KT 9999 SCT018 BKN040 TEMPO 35027G37KT 4500 SHRA SCT015CB BKN020

EXPIRED METARs :
  • 091431Z AUTO 34022G35KT 310V010 9999 -RA SCT028 BKN032 BKN038 07/03 Q1003 BLU 35020G30KT 9999 SCT018 BKN040 TEMPO 35027G37KT 4500 SHRA SCT015CB BKN020
  • 091425Z AUTO 34020KT 9999 SCT030 SCT035 BKN055 08/04 Q1002 BLU 35020G30KT 9999 SCT018 BKN040 TEMPO 35025G35KT 4500 SHRA SCT015CB BKN020
  • 091355Z AUTO 35019KT 320V020 9999 -RA FEW015CB BKN032 BKN040 07/04 Q1001 BLU 35020G30KT 9999 SCT018 BKN040 TEMPO 35025G35KT 4500 SHRA SCT015CB BKN020
  • 091333Z AUTO 34021G33KT 310V020 9999 RA FEW018 BKN024 BKN028 07/04 Q1000 WHT 35017G27KT 9999 SCT018 BKN040 TEMPO 35026G36KT 4500 SHRA SCT015CB BKN020
  • 091325Z AUTO 34016KT 310V010 9999 FEW028 SCT042 BKN047 08/05 Q1000 BLU 35017G27KT 9999 SCT018 BKN040 TEMPO 35026G36KT 4500 SHRA SCT015CB BKN020
  • 091258Z AUTO 35022G32KT 310V010 9000 -SHRA FEW015CB BKN025 BKN029 07/05 Q0999 BLU
  • 091243Z AUTO 31012G29KT 280V350 9999 FEW015CB SCT024 BKN029 07/05 Q0998 WHT
  • 091233Z AUTO 33011KT 280V360 9999 -SHRA FEW015CB SCT024 OVC038 07/05 Q0998 WHT
  • 091225Z AUTO 34017KT 300V010 9999 RA FEW015CB SCT024 BKN030 07/05 Q0998 RERA REDZ WHT
  • 091214Z AUTO 32016G28KT 280V350 9999 FEW015CB SCT024 BKN027 08/05 Q0997 WHT

TAF TAF EHLW
Valid from the 09 at 14:00 until the 10 at 02:00 UTC


091303Z 0914/1002 32018G32KT 9999 BKN045
TEMPO 0914/0915 3000 SHRA FEW012 SCT020CB BKN030
TEMPO 0914/0919 33024G37KT
BECMG 0921/0924 32012KT



MET'MAP, your aeronautical weather chart ! - Copyright ORBIFLY December 2007 - Disclaimer

ORBIFLY MET'MAP TEAM :

Programming & Development : Alexandra Zaïnal
Concept & original design : Baudouin d'Aumeries
Assistance for programming : Marc-Olivier Méhu
Technical & hardware support : Manuel Goepfert

Contact : metmap@orbifly.com




SOURCES & CREDITS :

   NOAA